TimeCST,TemperatureF,Dew PointF,Humidity,Sea Level PressureIn,VisibilityMPH,Wind Direction,Wind SpeedMPH,Gust SpeedMPH,PrecipitationIn,Events,Conditions,WindDirDegrees,DateUTC
12:55 AM,33.8,23.7,67,30.34,10.0,NNW,9.2,-,N/A,,Clear,330,2012-12-30 06:55:00
1:55 AM,32.5,23.7,70,30.36,10.0,NW,6.9,-,N/A,,Clear,320,2012-12-30 07:55:00
2:55 AM,31.5,23.7,73,30.37,10.0,NNW,8.1,-,N/A,,Clear,330,2012-12-30 08:55:00
3:55 AM,29.3,23.7,80,30.37,10.0,NW,5.8,-,N/A,,Clear,320,2012-12-30 09:55:00
4:55 AM,28.2,23.7,83,30.38,10.0,NW,5.8,-,N/A,,Clear,320,2012-12-30 10:55:00
5:55 AM,27.9,23.9,85,30.41,10.0,NW,5.8,-,N/A,,Clear,310,2012-12-30 11:55:00
6:55 AM,27.0,24.1,89,30.44,10.0,WNW,5.8,-,N/A,,Clear,300,2012-12-30 12:55:00
7:55 AM,30.2,25.0,81,30.45,10.0,NNW,9.2,-,N/A,,Clear,340,2012-12-30 13:55:00
8:55 AM,34.9,25.2,68,30.47,10.0,North,6.9,-,N/A,,Clear,360,2012-12-30 14:55:00
9:55 AM,39.0,25.9,59,30.48,10.0,North,8.1,-,N/A,,Clear,360,2012-12-30 15:55:00
10:55 AM,43.3,25.7,50,30.45,10.0,North,8.1,-,N/A,,Clear,360,2012-12-30 16:55:00
11:55 AM,46.6,24.3,42,30.43,10.0,Variable,3.5,-,N/A,,Clear,0,2012-12-30 17:55:00
12:55 PM,48.9,25.0,39,30.41,10.0,Calm,Calm,-,N/A,,Clear,0,2012-12-30 18:55:00
1:55 PM,51.1,24.6,36,30.40,10.0,WNW,4.6,-,N/A,,Clear,290,2012-12-30 19:55:00
2:55 PM,52.3,25.5,35,30.37,10.0,Variable,4.6,-,N/A,,Clear,0,2012-12-30 20:55:00
3:55 PM,51.8,25.2,36,30.37,10.0,NNE,5.8,-,N/A,,Clear,20,2012-12-30 21:55:00
4:55 PM,47.1,26.1,44,30.37,10.0,Calm,Calm,-,N/A,,Clear,0,2012-12-30 22:55:00
5:55 PM,45.0,28.8,53,30.38,10.0,North,6.9,-,N/A,,Clear,350,2012-12-30 23:55:00
6:55 PM,38.8,28.9,68,30.38,10.0,NE,5.8,-,N/A,,Clear,40,2012-12-31 00:55:00
7:55 PM,37.8,29.1,71,30.40,10.0,Calm,Calm,-,N/A,,Clear,0,2012-12-31 01:55:00
8:55 PM,35.8,29.3,77,30.40,10.0,Calm,Calm,-,N/A,,Clear,0,2012-12-31 02:55:00
9:55 PM,34.9,29.7,81,30.41,10.0,Calm,Calm,-,N/A,,Partly Cloudy,0,2012-12-31 03:55:00
10:55 PM,33.1,29.5,87,30.41,10.0,Calm,Calm,-,N/A,,Clear,0,2012-12-31 04:55:00
11:55 PM,31.5,27.9,87,30.39,10.0,NE,3.5,-,N/A,,Clear,50,2012-12-31 05:55:00